sensor_id;sensor_type;location;lat;lon;timestamp;temperature;humidity
12115;DHT22;6121;49.810;6.418;2022-07-30T00:02:04;17.70;94.20
12115;DHT22;6121;49.810;6.418;2022-07-30T00:04:30;17.60;94.40
12115;DHT22;6121;49.810;6.418;2022-07-30T00:06:57;17.60;94.20
12115;DHT22;6121;49.810;6.418;2022-07-30T00:09:23;17.60;94.30
12115;DHT22;6121;49.810;6.418;2022-07-30T00:11:49;17.50;94.50
12115;DHT22;6121;49.810;6.418;2022-07-30T00:14:14;17.50;94.60
12115;DHT22;6121;49.810;6.418;2022-07-30T00:16:40;17.80;94.30
12115;DHT22;6121;49.810;6.418;2022-07-30T00:19:06;17.60;94.40
12115;DHT22;6121;49.810;6.418;2022-07-30T00:21:32;17.30;94.90
12115;DHT22;6121;49.810;6.418;2022-07-30T00:23:57;17.40;94.90
12115;DHT22;6121;49.810;6.418;2022-07-30T00:26:23;17.20;95.10
12115;DHT22;6121;49.810;6.418;2022-07-30T00:28:49;17.40;94.90
12115;DHT22;6121;49.810;6.418;2022-07-30T00:31:14;17.50;94.70
12115;DHT22;6121;49.810;6.418;2022-07-30T00:33:40;17.40;95.00
12115;DHT22;6121;49.810;6.418;2022-07-30T00:36:05;17.40;95.00
12115;DHT22;6121;49.810;6.418;2022-07-30T00:38:31;17.40;95.10
12115;DHT22;6121;49.810;6.418;2022-07-30T00:40:57;17.30;95.30
12115;DHT22;6121;49.810;6.418;2022-07-30T00:43:23;17.20;95.30
12115;DHT22;6121;49.810;6.418;2022-07-30T00:45:48;17.20;95.40
12115;DHT22;6121;49.810;6.418;2022-07-30T00:48:14;17.10;95.60
12115;DHT22;6121;49.810;6.418;2022-07-30T00:50:40;17.00;95.70
12115;DHT22;6121;49.810;6.418;2022-07-30T00:53:07;17.10;95.70
12115;DHT22;6121;49.810;6.418;2022-07-30T00:55:33;17.00;96.00
12115;DHT22;6121;49.810;6.418;2022-07-30T00:57:59;16.90;96.10
12115;DHT22;6121;49.810;6.418;2022-07-30T01:00:24;16.80;96.30
12115;DHT22;6121;49.810;6.418;2022-07-30T01:02:50;16.80;96.40
12115;DHT22;6121;49.810;6.418;2022-07-30T01:05:16;16.70;96.70
12115;DHT22;6121;49.810;6.418;2022-07-30T01:07:42;16.50;97.20
12115;DHT22;6121;49.810;6.418;2022-07-30T01:10:11;16.60;97.10
12115;DHT22;6121;49.810;6.418;2022-07-30T01:12:37;16.60;97.10
12115;DHT22;6121;49.810;6.418;2022-07-30T01:15:05;16.60;97.40
12115;DHT22;6121;49.810;6.418;2022-07-30T01:17:32;16.50;97.60
12115;DHT22;6121;49.810;6.418;2022-07-30T01:20:08;16.50;97.70
12115;DHT22;6121;49.810;6.418;2022-07-30T01:22:46;16.30;98.00
12115;DHT22;6121;49.810;6.418;2022-07-30T01:28:08;16.40;98.00
12115;DHT22;6121;49.810;6.418;2022-07-30T01:30:39;16.50;97.80
12115;DHT22;6121;49.810;6.418;2022-07-30T01:33:06;16.50;97.80
12115;DHT22;6121;49.810;6.418;2022-07-30T01:35:33;16.30;98.10
12115;DHT22;6121;49.810;6.418;2022-07-30T01:38:02;16.20;98.40
12115;DHT22;6121;49.810;6.418;2022-07-30T01:40:29;16.30;98.40
12115;DHT22;6121;49.810;6.418;2022-07-30T01:42:56;16.20;98.60
12115;DHT22;6121;49.810;6.418;2022-07-30T01:45:24;16.40;98.30
12115;DHT22;6121;49.810;6.418;2022-07-30T01:47:56;16.30;98.70
12115;DHT22;6121;49.810;6.418;2022-07-30T01:50:23;16.10;99.00
12115;DHT22;6121;49.810;6.418;2022-07-30T01:52:51;15.90;99.70
12115;DHT22;6121;49.810;6.418;2022-07-30T01:55:40;15.90;99.90
12115;DHT22;6121;49.810;6.418;2022-07-30T01:58:05;15.90;99.90
12115;DHT22;6121;49.810;6.418;2022-07-30T02:00:35;15.80;99.90
12115;DHT22;6121;49.810;6.418;2022-07-30T02:03:01;15.70;99.90
12115;DHT22;6121;49.810;6.418;2022-07-30T02:05:30;15.70;99.90
12115;DHT22;6121;49.810;6.418;2022-07-30T02:08:00;15.60;99.90
12115;DHT22;6121;49.810;6.418;2022-07-30T02:10:40;15.50;99.90
12115;DHT22;6121;49.810;6.418;2022-07-30T02:13:08;15.60;99.90
12115;DHT22;6121;49.810;6.418;2022-07-30T02:15:44;15.50;99.90
12115;DHT22;6121;49.810;6.418;2022-07-30T02:18:16;15.60;99.90
12115;DHT22;6121;49.810;6.418;2022-07-30T02:20:45;15.70;99.90
12115;DHT22;6121;49.810;6.418;2022-07-30T02:23:14;15.50;99.90
12115;DHT22;6121;49.810;6.418;2022-07-30T02:25:45;15.50;99.90
12115;DHT22;6121;49.810;6.418;2022-07-30T02:28:13;15.60;99.90
12115;DHT22;6121;49.810;6.418;2022-07-30T02:30:44;15.50;99.90
12115;DHT22;6121;49.810;6.418;2022-07-30T02:33:11;15.40;99.90
12115;DHT22;6121;49.810;6.418;2022-07-30T02:35:39;15.30;99.90
12115;DHT22;6121;49.810;6.418;2022-07-30T02:38:05;15.20;99.90
12115;DHT22;6121;49.810;6.418;2022-07-30T02:40:32;15.20;99.90
12115;DHT22;6121;49.810;6.418;2022-07-30T02:42:59;15.40;99.90
12115;DHT22;6121;49.810;6.418;2022-07-30T02:45:25;15.70;99.90
12115;DHT22;6121;49.810;6.418;2022-07-30T02:47:55;15.50;99.90
12115;DHT22;6121;49.810;6.418;2022-07-30T02:50:22;15.50;99.90
12115;DHT22;6121;49.810;6.418;2022-07-30T02:52:49;15.30;99.90
12115;DHT22;6121;49.810;6.418;2022-07-30T02:55:17;15.10;99.90
12115;DHT22;6121;49.810;6.418;2022-07-30T02:57:43;15.20;99.90
12115;DHT22;6121;49.810;6.418;2022-07-30T03:00:10;15.10;99.90
12115;DHT22;6121;49.810;6.418;2022-07-30T03:02:38;15.00;99.90
12115;DHT22;6121;49.810;6.418;2022-07-30T03:05:05;15.00;99.90
12115;DHT22;6121;49.810;6.418;2022-07-30T03:07:33;15.00;99.90
12115;DHT22;6121;49.810;6.418;2022-07-30T03:10:00;15.10;99.90
12115;DHT22;6121;49.810;6.418;2022-07-30T03:12:29;15.40;99.90
12115;DHT22;6121;49.810;6.418;2022-07-30T03:14:56;15.30;99.90
12115;DHT22;6121;49.810;6.418;2022-07-30T03:17:24;15.40;99.90
12115;DHT22;6121;49.810;6.418;2022-07-30T03:19:52;15.30;99.90
12115;DHT22;6121;49.810;6.418;2022-07-30T03:22:20;15.00;99.90
12115;DHT22;6121;49.810;6.418;2022-07-30T03:24:48;15.10;99.90
12115;DHT22;6121;49.810;6.418;2022-07-30T03:27:15;14.80;99.90
12115;DHT22;6121;49.810;6.418;2022-07-30T03:29:42;14.70;99.90
12115;DHT22;6121;49.810;6.418;2022-07-30T03:32:09;14.60;99.90
12115;DHT22;6121;49.810;6.418;2022-07-30T03:34:35;14.70;99.90
12115;DHT22;6121;49.810;6.418;2022-07-30T03:37:05;14.70;99.90
12115;DHT22;6121;49.810;6.418;2022-07-30T03:39:34;14.70;99.90
12115;DHT22;6121;49.810;6.418;2022-07-30T03:42:02;14.90;99.90
12115;DHT22;6121;49.810;6.418;2022-07-30T03:44:29;14.90;99.90
12115;DHT22;6121;49.810;6.418;2022-07-30T03:46:56;14.70;99.90
12115;DHT22;6121;49.810;6.418;2022-07-30T03:49:24;14.70;99.90
12115;DHT22;6121;49.810;6.418;2022-07-30T03:51:51;14.40;99.90
12115;DHT22;6121;49.810;6.418;2022-07-30T03:54:18;14.40;99.90
12115;DHT22;6121;49.810;6.418;2022-07-30T03:56:44;14.50;99.90
12115;DHT22;6121;49.810;6.418;2022-07-30T03:59:12;14.40;99.90
12115;DHT22;6121;49.810;6.418;2022-07-30T04:01:38;14.40;99.90
12115;DHT22;6121;49.810;6.418;2022-07-30T04:04:08;14.60;99.90
12115;DHT22;6121;49.810;6.418;2022-07-30T04:06:35;14.50;99.90
12115;DHT22;6121;49.810;6.418;2022-07-30T04:09:07;14.50;99.90
12115;DHT22;6121;49.810;6.418;2022-07-30T04:11:33;14.50;99.90
12115;DHT22;6121;49.810;6.418;2022-07-30T04:13:59;14.50;99.90
12115;DHT22;6121;49.810;6.418;2022-07-30T04:18:56;14.70;99.90
12115;DHT22;6121;49.810;6.418;2022-07-30T04:21:23;14.70;99.90
12115;DHT22;6121;49.810;6.418;2022-07-30T04:23:51;14.40;99.90
12115;DHT22;6121;49.810;6.418;2022-07-30T04:26:18;14.30;99.90
12115;DHT22;6121;49.810;6.418;2022-07-30T04:28:44;14.30;99.90
12115;DHT22;6121;49.810;6.418;2022-07-30T04:31:10;14.20;99.90
12115;DHT22;6121;49.810;6.418;2022-07-30T04:33:36;14.30;99.90
12115;DHT22;6121;49.810;6.418;2022-07-30T04:36:09;14.30;99.90
12115;DHT22;6121;49.810;6.418;2022-07-30T04:38:34;14.10;99.90
12115;DHT22;6121;49.810;6.418;2022-07-30T04:41:00;14.20;99.90
12115;DHT22;6121;49.810;6.418;2022-07-30T04:43:26;14.40;99.90
12115;DHT22;6121;49.810;6.418;2022-07-30T04:45:52;14.20;99.90
12115;DHT22;6121;49.810;6.418;2022-07-30T04:48:17;14.40;99.90
12115;DHT22;6121;49.810;6.418;2022-07-30T04:50:47;14.50;99.90
12115;DHT22;6121;49.810;6.418;2022-07-30T04:53:14;14.60;99.90
12115;DHT22;6121;49.810;6.418;2022-07-30T04:55:42;14.50;99.90
12115;DHT22;6121;49.810;6.418;2022-07-30T04:58:11;14.50;99.90
12115;DHT22;6121;49.810;6.418;2022-07-30T05:00:38;14.60;99.90
12115;DHT22;6121;49.810;6.418;2022-07-30T05:03:05;14.60;99.90
12115;DHT22;6121;49.810;6.418;2022-07-30T05:05:32;14.70;99.90
12115;DHT22;6121;49.810;6.418;2022-07-30T05:07:59;14.80;99.90
12115;DHT22;6121;49.810;6.418;2022-07-30T05:10:26;15.00;99.90
12115;DHT22;6121;49.810;6.418;2022-07-30T05:12:52;14.90;99.90
12115;DHT22;6121;49.810;6.418;2022-07-30T05:15:17;14.90;99.90
12115;DHT22;6121;49.810;6.418;2022-07-30T05:17:44;14.90;99.90
12115;DHT22;6121;49.810;6.418;2022-07-30T05:20:10;15.00;99.90
12115;DHT22;6121;49.810;6.418;2022-07-30T05:22:37;15.00;99.90
12115;DHT22;6121;49.810;6.418;2022-07-30T05:25:03;15.10;99.90
12115;DHT22;6121;49.810;6.418;2022-07-30T05:27:29;15.20;99.90
12115;DHT22;6121;49.810;6.418;2022-07-30T05:29:54;15.40;99.90
12115;DHT22;6121;49.810;6.418;2022-07-30T05:32:20;15.40;99.90
12115;DHT22;6121;49.810;6.418;2022-07-30T05:34:45;15.50;99.90
12115;DHT22;6121;49.810;6.418;2022-07-30T05:37:11;15.70;99.90
12115;DHT22;6121;49.810;6.418;2022-07-30T05:39:37;15.70;99.90
12115;DHT22;6121;49.810;6.418;2022-07-30T05:42:02;15.90;99.90
12115;DHT22;6121;49.810;6.418;2022-07-30T05:44:28;15.90;99.90
12115;DHT22;6121;49.810;6.418;2022-07-30T05:46:54;15.90;99.90
12115;DHT22;6121;49.810;6.418;2022-07-30T05:49:20;16.10;99.90
12115;DHT22;6121;49.810;6.418;2022-07-30T05:51:45;16.30;99.90
12115;DHT22;6121;49.810;6.418;2022-07-30T05:54:11;16.50;99.90
12115;DHT22;6121;49.810;6.418;2022-07-30T05:56:37;16.40;99.90
12115;DHT22;6121;49.810;6.418;2022-07-30T05:59:03;16.50;99.90
12115;DHT22;6121;49.810;6.418;2022-07-30T06:01:29;16.70;99.90
12115;DHT22;6121;49.810;6.418;2022-07-30T06:03:54;16.90;99.90
12115;DHT22;6121;49.810;6.418;2022-07-30T06:06:20;16.90;99.90
12115;DHT22;6121;49.810;6.418;2022-07-30T06:08:45;17.00;99.90
12115;DHT22;6121;49.810;6.418;2022-07-30T06:11:11;17.10;99.90
12115;DHT22;6121;49.810;6.418;2022-07-30T06:13:37;17.30;99.90
12115;DHT22;6121;49.810;6.418;2022-07-30T06:16:03;17.50;99.90
12115;DHT22;6121;49.810;6.418;2022-07-30T06:18:28;17.50;99.90
12115;DHT22;6121;49.810;6.418;2022-07-30T06:20:54;17.40;99.90
12115;DHT22;6121;49.810;6.418;2022-07-30T06:23:21;17.70;99.90
12115;DHT22;6121;49.810;6.418;2022-07-30T06:25:47;17.70;99.90
12115;DHT22;6121;49.810;6.418;2022-07-30T06:28:13;18.00;99.90
12115;DHT22;6121;49.810;6.418;2022-07-30T06:30:39;18.20;99.90
12115;DHT22;6121;49.810;6.418;2022-07-30T06:33:06;18.30;99.90
12115;DHT22;6121;49.810;6.418;2022-07-30T06:35:31;18.40;99.90
12115;DHT22;6121;49.810;6.418;2022-07-30T06:37:59;18.70;99.90
12115;DHT22;6121;49.810;6.418;2022-07-30T06:40:24;19.00;99.90
12115;DHT22;6121;49.810;6.418;2022-07-30T06:42:50;19.20;99.90
12115;DHT22;6121;49.810;6.418;2022-07-30T06:45:16;19.20;99.90
12115;DHT22;6121;49.810;6.418;2022-07-30T06:47:41;19.30;99.90
12115;DHT22;6121;49.810;6.418;2022-07-30T06:50:08;19.20;99.90
12115;DHT22;6121;49.810;6.418;2022-07-30T06:52:33;19.50;99.90
12115;DHT22;6121;49.810;6.418;2022-07-30T06:54:59;19.60;99.90
12115;DHT22;6121;49.810;6.418;2022-07-30T06:57:25;19.80;99.90
12115;DHT22;6121;49.810;6.418;2022-07-30T06:59:50;20.00;99.40
12115;DHT22;6121;49.810;6.418;2022-07-30T07:02:16;20.00;99.30
12115;DHT22;6121;49.810;6.418;2022-07-30T07:04:42;20.10;99.20
12115;DHT22;6121;49.810;6.418;2022-07-30T07:07:07;20.40;98.80
12115;DHT22;6121;49.810;6.418;2022-07-30T07:09:33;20.40;98.20
12115;DHT22;6121;49.810;6.418;2022-07-30T07:11:58;20.70;98.10
12115;DHT22;6121;49.810;6.418;2022-07-30T07:14:24;20.70;97.40
12115;DHT22;6121;49.810;6.418;2022-07-30T07:16:51;21.00;97.40
12115;DHT22;6121;49.810;6.418;2022-07-30T07:19:16;21.30;96.90
12115;DHT22;6121;49.810;6.418;2022-07-30T07:21:42;21.70;96.10
12115;DHT22;6121;49.810;6.418;2022-07-30T07:24:07;21.90;95.80
12115;DHT22;6121;49.810;6.418;2022-07-30T07:26:33;21.60;95.70
12115;DHT22;6121;49.810;6.418;2022-07-30T07:28:59;22.00;95.50
12115;DHT22;6121;49.810;6.418;2022-07-30T07:31:25;22.00;95.20
12115;DHT22;6121;49.810;6.418;2022-07-30T07:33:50;22.30;94.50
12115;DHT22;6121;49.810;6.418;2022-07-30T07:36:19;22.50;94.10
12115;DHT22;6121;49.810;6.418;2022-07-30T07:38:45;22.70;94.00
12115;DHT22;6121;49.810;6.418;2022-07-30T07:41:10;22.80;93.70
12115;DHT22;6121;49.810;6.418;2022-07-30T07:43:36;23.10;93.40
12115;DHT22;6121;49.810;6.418;2022-07-30T07:46:01;23.00;92.90
12115;DHT22;6121;49.810;6.418;2022-07-30T07:48:27;22.90;92.70
12115;DHT22;6121;49.810;6.418;2022-07-30T07:50:52;23.20;92.40
12115;DHT22;6121;49.810;6.418;2022-07-30T07:53:18;23.20;91.90
12115;DHT22;6121;49.810;6.418;2022-07-30T07:55:44;23.50;92.30
12115;DHT22;6121;49.810;6.418;2022-07-30T07:58:09;23.90;91.30
12115;DHT22;6121;49.810;6.418;2022-07-30T08:00:40;24.00;91.50
12115;DHT22;6121;49.810;6.418;2022-07-30T08:03:06;24.20;91.40
12115;DHT22;6121;49.810;6.418;2022-07-30T08:05:32;24.10;90.60
12115;DHT22;6121;49.810;6.418;2022-07-30T08:07:58;24.20;91.10
12115;DHT22;6121;49.810;6.418;2022-07-30T08:10:23;24.30;90.20
12115;DHT22;6121;49.810;6.418;2022-07-30T08:12:49;24.30;90.70
12115;DHT22;6121;49.810;6.418;2022-07-30T08:15:15;24.70;90.80
12115;DHT22;6121;49.810;6.418;2022-07-30T08:17:41;25.10;90.20
12115;DHT22;6121;49.810;6.418;2022-07-30T08:20:08;25.30;89.90
12115;DHT22;6121;49.810;6.418;2022-07-30T08:22:34;25.50;86.30
12115;DHT22;6121;49.810;6.418;2022-07-30T08:24:59;25.60;84.80
12115;DHT22;6121;49.810;6.418;2022-07-30T08:27:25;25.90;82.80
12115;DHT22;6121;49.810;6.418;2022-07-30T08:29:51;26.00;83.00
12115;DHT22;6121;49.810;6.418;2022-07-30T08:32:16;26.20;84.10
12115;DHT22;6121;49.810;6.418;2022-07-30T08:34:42;26.40;83.70
12115;DHT22;6121;49.810;6.418;2022-07-30T08:37:08;26.20;80.10
12115;DHT22;6121;49.810;6.418;2022-07-30T08:39:33;26.60;80.40
12115;DHT22;6121;49.810;6.418;2022-07-30T08:41:59;26.90;80.30
12115;DHT22;6121;49.810;6.418;2022-07-30T08:44:27;27.00;79.30
12115;DHT22;6121;49.810;6.418;2022-07-30T08:46:54;26.90;77.00
12115;DHT22;6121;49.810;6.418;2022-07-30T08:49:21;27.30;76.10
12115;DHT22;6121;49.810;6.418;2022-07-30T08:51:48;27.40;73.40
12115;DHT22;6121;49.810;6.418;2022-07-30T08:54:14;27.40;72.70
12115;DHT22;6121;49.810;6.418;2022-07-30T08:56:40;27.30;70.20
12115;DHT22;6121;49.810;6.418;2022-07-30T08:59:06;27.40;71.00
12115;DHT22;6121;49.810;6.418;2022-07-30T09:01:32;27.80;72.20
12115;DHT22;6121;49.810;6.418;2022-07-30T09:03:58;28.00;72.80
12115;DHT22;6121;49.810;6.418;2022-07-30T09:06:23;28.20;74.00
12115;DHT22;6121;49.810;6.418;2022-07-30T09:08:49;28.40;72.50
12115;DHT22;6121;49.810;6.418;2022-07-30T09:11:15;28.30;70.40
12115;DHT22;6121;49.810;6.418;2022-07-30T09:13:41;28.10;69.60
12115;DHT22;6121;49.810;6.418;2022-07-30T09:16:17;28.40;67.10
12115;DHT22;6121;49.810;6.418;2022-07-30T09:18:43;28.70;66.60
12115;DHT22;6121;49.810;6.418;2022-07-30T09:24:04;28.80;65.30
12115;DHT22;6121;49.810;6.418;2022-07-30T09:26:31;29.00;65.40
12115;DHT22;6121;49.810;6.418;2022-07-30T09:29:35;28.70;62.90
12115;DHT22;6121;49.810;6.418;2022-07-30T09:32:05;28.80;66.00
12115;DHT22;6121;49.810;6.418;2022-07-30T09:34:34;29.10;64.80
12115;DHT22;6121;49.810;6.418;2022-07-30T09:37:19;29.40;63.90
12115;DHT22;6121;49.810;6.418;2022-07-30T09:39:45;29.60;65.40
12115;DHT22;6121;49.810;6.418;2022-07-30T09:42:21;29.60;61.80
12115;DHT22;6121;49.810;6.418;2022-07-30T09:44:47;29.70;61.80
12115;DHT22;6121;49.810;6.418;2022-07-30T09:47:36;29.90;61.90
12115;DHT22;6121;49.810;6.418;2022-07-30T09:50:07;30.10;63.30
12115;DHT22;6121;49.810;6.418;2022-07-30T09:52:35;30.50;63.70
12115;DHT22;6121;49.810;6.418;2022-07-30T09:55:01;30.40;59.80
12115;DHT22;6121;49.810;6.418;2022-07-30T09:57:26;30.40;59.70
12115;DHT22;6121;49.810;6.418;2022-07-30T09:59:52;30.50;58.90
12115;DHT22;6121;49.810;6.418;2022-07-30T10:02:18;30.40;58.80
12115;DHT22;6121;49.810;6.418;2022-07-30T10:04:45;30.30;59.70
12115;DHT22;6121;49.810;6.418;2022-07-30T10:07:19;30.40;59.00
12115;DHT22;6121;49.810;6.418;2022-07-30T10:09:46;30.60;58.20
12115;DHT22;6121;49.810;6.418;2022-07-30T10:12:13;30.60;58.00
12115;DHT22;6121;49.810;6.418;2022-07-30T10:14:43;30.70;57.30
12115;DHT22;6121;49.810;6.418;2022-07-30T10:17:11;30.50;58.10
12115;DHT22;6121;49.810;6.418;2022-07-30T10:19:37;30.60;58.00
12115;DHT22;6121;49.810;6.418;2022-07-30T10:22:04;30.80;57.60
12115;DHT22;6121;49.810;6.418;2022-07-30T10:24:30;31.00;59.10
12115;DHT22;6121;49.810;6.418;2022-07-30T10:26:56;31.10;57.80
12115;DHT22;6121;49.810;6.418;2022-07-30T10:29:22;31.10;57.60
12115;DHT22;6121;49.810;6.418;2022-07-30T10:31:49;31.30;57.80
12115;DHT22;6121;49.810;6.418;2022-07-30T10:34:17;31.40;56.50
12115;DHT22;6121;49.810;6.418;2022-07-30T10:36:51;31.30;56.00
12115;DHT22;6121;49.810;6.418;2022-07-30T10:39:38;31.30;55.90
12115;DHT22;6121;49.810;6.418;2022-07-30T10:45:15;31.40;55.70
12115;DHT22;6121;49.810;6.418;2022-07-30T10:47:42;31.70;54.50
12115;DHT22;6121;49.810;6.418;2022-07-30T10:50:20;31.60;54.20
12115;DHT22;6121;49.810;6.418;2022-07-30T10:52:52;31.40;54.20
12115;DHT22;6121;49.810;6.418;2022-07-30T10:55:26;31.60;54.50
12115;DHT22;6121;49.810;6.418;2022-07-30T11:00:22;31.60;50.40
12115;DHT22;6121;49.810;6.418;2022-07-30T11:05:35;31.80;49.60
12115;DHT22;6121;49.810;6.418;2022-07-30T11:08:30;32.10;49.20
12115;DHT22;6121;49.810;6.418;2022-07-30T11:10:56;32.30;48.80
12115;DHT22;6121;49.810;6.418;2022-07-30T11:13:51;32.20;48.20
12115;DHT22;6121;49.810;6.418;2022-07-30T11:16:18;32.50;48.10
12115;DHT22;6121;49.810;6.418;2022-07-30T11:21:29;32.40;48.80
12115;DHT22;6121;49.810;6.418;2022-07-30T11:23:56;32.60;47.70
12115;DHT22;6121;49.810;6.418;2022-07-30T11:29:04;32.60;47.20
12115;DHT22;6121;49.810;6.418;2022-07-30T11:31:34;32.50;46.50
12115;DHT22;6121;49.810;6.418;2022-07-30T11:37:09;32.30;46.40
12115;DHT22;6121;49.810;6.418;2022-07-30T11:42:31;32.00;47.10
12115;DHT22;6121;49.810;6.418;2022-07-30T11:52:51;31.50;46.10
12115;DHT22;6121;49.810;6.418;2022-07-30T11:55:41;31.70;46.20
12115;DHT22;6121;49.810;6.418;2022-07-30T11:58:09;32.20;46.30
12115;DHT22;6121;49.810;6.418;2022-07-30T12:00:42;32.70;46.00
12115;DHT22;6121;49.810;6.418;2022-07-30T12:03:24;33.00;45.30
12115;DHT22;6121;49.810;6.418;2022-07-30T12:05:51;33.10;45.70
12115;DHT22;6121;49.810;6.418;2022-07-30T12:08:17;33.00;45.00
12115;DHT22;6121;49.810;6.418;2022-07-30T12:10:53;33.40;44.60
12115;DHT22;6121;49.810;6.418;2022-07-30T12:13:19;33.10;44.50
12115;DHT22;6121;49.810;6.418;2022-07-30T12:15:46;33.00;44.50
12115;DHT22;6121;49.810;6.418;2022-07-30T12:18:12;33.10;45.20
12115;DHT22;6121;49.810;6.418;2022-07-30T12:20:39;33.10;45.20
12115;DHT22;6121;49.810;6.418;2022-07-30T12:23:12;33.20;44.30
12115;DHT22;6121;49.810;6.418;2022-07-30T12:25:42;33.20;45.00
12115;DHT22;6121;49.810;6.418;2022-07-30T12:28:22;33.30;45.90
12115;DHT22;6121;49.810;6.418;2022-07-30T12:30:49;32.90;44.70
12115;DHT22;6121;49.810;6.418;2022-07-30T12:33:15;33.10;44.40
12115;DHT22;6121;49.810;6.418;2022-07-30T12:36:01;33.20;44.60
12115;DHT22;6121;49.810;6.418;2022-07-30T12:38:27;33.10;44.90
12115;DHT22;6121;49.810;6.418;2022-07-30T12:41:03;32.70;43.70
12115;DHT22;6121;49.810;6.418;2022-07-30T12:44:02;32.20;44.30
12115;DHT22;6121;49.810;6.418;2022-07-30T12:46:27;31.90;45.60
12115;DHT22;6121;49.810;6.418;2022-07-30T12:49:01;32.00;45.20
12115;DHT22;6121;49.810;6.418;2022-07-30T12:51:32;32.10;46.80
12115;DHT22;6121;49.810;6.418;2022-07-30T12:53:59;31.90;44.30
12115;DHT22;6121;49.810;6.418;2022-07-30T12:56:27;31.80;44.50
12115;DHT22;6121;49.810;6.418;2022-07-30T12:58:55;31.80;44.90
12115;DHT22;6121;49.810;6.418;2022-07-30T13:01:40;31.70;44.90
12115;DHT22;6121;49.810;6.418;2022-07-30T13:04:07;31.70;45.70
12115;DHT22;6121;49.810;6.418;2022-07-30T13:06:33;31.70;45.00
12115;DHT22;6121;49.810;6.418;2022-07-30T13:08:59;31.60;45.40
12115;DHT22;6121;49.810;6.418;2022-07-30T13:11:36;31.60;45.50
12115;DHT22;6121;49.810;6.418;2022-07-30T13:14:02;31.60;46.00
12115;DHT22;6121;49.810;6.418;2022-07-30T13:16:31;31.70;45.70
12115;DHT22;6121;49.810;6.418;2022-07-30T13:18:57;31.70;45.90
12115;DHT22;6121;49.810;6.418;2022-07-30T13:21:22;31.60;45.80
12115;DHT22;6121;49.810;6.418;2022-07-30T13:23:48;31.60;46.30
12115;DHT22;6121;49.810;6.418;2022-07-30T13:26:13;31.60;45.40
12115;DHT22;6121;49.810;6.418;2022-07-30T13:28:39;31.60;45.60
12115;DHT22;6121;49.810;6.418;2022-07-30T13:31:05;31.70;46.10
12115;DHT22;6121;49.810;6.418;2022-07-30T13:33:34;31.70;46.30
12115;DHT22;6121;49.810;6.418;2022-07-30T13:36:00;31.60;46.30
12115;DHT22;6121;49.810;6.418;2022-07-30T13:38:26;31.60;46.30
12115;DHT22;6121;49.810;6.418;2022-07-30T13:40:52;31.50;46.20
12115;DHT22;6121;49.810;6.418;2022-07-30T13:43:19;31.40;46.20
12115;DHT22;6121;49.810;6.418;2022-07-30T13:45:44;31.30;45.30
12115;DHT22;6121;49.810;6.418;2022-07-30T13:48:12;31.20;45.60
12115;DHT22;6121;49.810;6.418;2022-07-30T13:50:37;31.10;45.70
12115;DHT22;6121;49.810;6.418;2022-07-30T13:53:04;31.20;47.20
12115;DHT22;6121;49.810;6.418;2022-07-30T13:55:29;31.20;46.10
12115;DHT22;6121;49.810;6.418;2022-07-30T13:57:55;31.10;46.40
12115;DHT22;6121;49.810;6.418;2022-07-30T14:00:21;31.10;46.30
12115;DHT22;6121;49.810;6.418;2022-07-30T14:02:47;31.00;47.70
12115;DHT22;6121;49.810;6.418;2022-07-30T14:05:13;30.90;46.50
12115;DHT22;6121;49.810;6.418;2022-07-30T14:07:39;30.90;47.20
12115;DHT22;6121;49.810;6.418;2022-07-30T14:10:06;30.90;47.40
12115;DHT22;6121;49.810;6.418;2022-07-30T14:12:33;30.90;47.50
12115;DHT22;6121;49.810;6.418;2022-07-30T14:14:59;30.90;46.70
12115;DHT22;6121;49.810;6.418;2022-07-30T14:17:25;30.90;46.80
12115;DHT22;6121;49.810;6.418;2022-07-30T14:19:50;30.90;48.00
12115;DHT22;6121;49.810;6.418;2022-07-30T14:22:19;30.90;46.60
12115;DHT22;6121;49.810;6.418;2022-07-30T14:24:45;31.00;47.40
12115;DHT22;6121;49.810;6.418;2022-07-30T14:27:10;31.10;47.70
12115;DHT22;6121;49.810;6.418;2022-07-30T14:29:36;31.20;48.20
12115;DHT22;6121;49.810;6.418;2022-07-30T14:32:02;31.00;47.50
12115;DHT22;6121;49.810;6.418;2022-07-30T14:34:28;31.00;47.90
12115;DHT22;6121;49.810;6.418;2022-07-30T14:36:53;31.00;48.80
12115;DHT22;6121;49.810;6.418;2022-07-30T14:39:19;30.90;47.40
12115;DHT22;6121;49.810;6.418;2022-07-30T14:41:45;30.70;47.40
12115;DHT22;6121;49.810;6.418;2022-07-30T14:44:11;30.60;47.80
12115;DHT22;6121;49.810;6.418;2022-07-30T14:46:38;30.70;48.30
12115;DHT22;6121;49.810;6.418;2022-07-30T14:49:04;30.60;49.40
12115;DHT22;6121;49.810;6.418;2022-07-30T14:51:30;30.70;48.40
12115;DHT22;6121;49.810;6.418;2022-07-30T14:53:55;30.70;49.70
12115;DHT22;6121;49.810;6.418;2022-07-30T14:56:21;30.60;51.30
12115;DHT22;6121;49.810;6.418;2022-07-30T14:58:49;30.50;52.00
12115;DHT22;6121;49.810;6.418;2022-07-30T15:01:15;30.50;50.50
12115;DHT22;6121;49.810;6.418;2022-07-30T15:03:40;30.50;50.60
12115;DHT22;6121;49.810;6.418;2022-07-30T15:06:06;30.40;50.70
12115;DHT22;6121;49.810;6.418;2022-07-30T15:08:34;30.30;49.90
12115;DHT22;6121;49.810;6.418;2022-07-30T15:11:00;30.40;51.10
12115;DHT22;6121;49.810;6.418;2022-07-30T15:13:26;30.40;52.80
12115;DHT22;6121;49.810;6.418;2022-07-30T15:25:04;30.40;52.30
12115;DHT22;6121;49.810;6.418;2022-07-30T15:27:30;30.40;51.00
12115;DHT22;6121;49.810;6.418;2022-07-30T15:29:56;30.40;50.90
12115;DHT22;6121;49.810;6.418;2022-07-30T15:32:22;30.30;51.00
12115;DHT22;6121;49.810;6.418;2022-07-30T15:34:48;30.30;51.90
12115;DHT22;6121;49.810;6.418;2022-07-30T15:37:13;30.30;51.40
12115;DHT22;6121;49.810;6.418;2022-07-30T15:39:40;30.20;51.60
12115;DHT22;6121;49.810;6.418;2022-07-30T15:42:06;30.20;50.20
12115;DHT22;6121;49.810;6.418;2022-07-30T15:44:31;30.10;51.80
12115;DHT22;6121;49.810;6.418;2022-07-30T15:46:58;30.10;51.70
12115;DHT22;6121;49.810;6.418;2022-07-30T15:49:24;30.30;51.50
12115;DHT22;6121;49.810;6.418;2022-07-30T15:51:50;30.20;51.90
12115;DHT22;6121;49.810;6.418;2022-07-30T15:54:18;30.20;52.40
12115;DHT22;6121;49.810;6.418;2022-07-30T15:56:44;30.10;51.00
12115;DHT22;6121;49.810;6.418;2022-07-30T15:59:13;30.00;51.10
12115;DHT22;6121;49.810;6.418;2022-07-30T16:01:39;30.10;52.40
12115;DHT22;6121;49.810;6.418;2022-07-30T16:04:05;30.10;52.90
12115;DHT22;6121;49.810;6.418;2022-07-30T16:06:31;30.10;52.40
12115;DHT22;6121;49.810;6.418;2022-07-30T16:08:57;29.90;51.00
12115;DHT22;6121;49.810;6.418;2022-07-30T16:11:24;29.90;53.80
12115;DHT22;6121;49.810;6.418;2022-07-30T16:13:49;29.90;53.00
12115;DHT22;6121;49.810;6.418;2022-07-30T16:16:15;29.90;52.70
12115;DHT22;6121;49.810;6.418;2022-07-30T16:18:40;29.90;53.40
12115;DHT22;6121;49.810;6.418;2022-07-30T16:21:06;29.90;53.90
12115;DHT22;6121;49.810;6.418;2022-07-30T16:23:32;29.90;53.10
12115;DHT22;6121;49.810;6.418;2022-07-30T16:25:59;29.80;53.90
12115;DHT22;6121;49.810;6.418;2022-07-30T16:28:25;29.90;54.50
12115;DHT22;6121;49.810;6.418;2022-07-30T16:30:50;29.90;54.20
12115;DHT22;6121;49.810;6.418;2022-07-30T16:33:16;29.80;54.30